createdAt,value
2018-06-27T00:02:28.305Z,77.48
2018-06-27T00:04:56.752Z,76.39
2018-06-27T00:07:25.214Z,76.52
2018-06-27T00:09:53.590Z,76.82
2018-06-27T00:12:22.092Z,77.69
2018-06-27T00:14:50.540Z,77.07
2018-06-27T00:17:18.934Z,77.33
2018-06-27T00:19:47.393Z,76.83
2018-06-27T00:22:15.788Z,77.78
2018-06-27T00:24:44.236Z,77.28
2018-06-27T00:27:12.745Z,77.26
2018-06-27T00:29:41.233Z,77.03
2018-06-27T00:32:09.688Z,77.29
2018-06-27T00:34:38.128Z,77.86
2018-06-27T00:37:06.549Z,76.95
2018-06-27T00:39:35.044Z,77.04
2018-06-27T00:42:03.482Z,76.93
2018-06-27T00:44:31.882Z,76.65
2018-06-27T00:47:00.468Z,77.00
2018-06-27T00:49:28.864Z,77.67
2018-06-27T00:51:57.275Z,76.27
2018-06-27T00:54:25.952Z,77.44
2018-06-27T00:56:54.349Z,77.60
2018-06-27T00:59:22.771Z,78.45
2018-06-27T01:01:51.186Z,76.97
2018-06-27T01:04:19.623Z,77.02
2018-06-27T01:06:48.013Z,77.17
2018-06-27T01:09:16.460Z,77.96
2018-06-27T01:11:44.985Z,77.91
2018-06-27T01:14:13.410Z,77.44
2018-06-27T01:16:41.849Z,77.57
2018-06-27T01:19:10.307Z,78.29
2018-06-27T01:21:38.823Z,78.38
2018-06-27T01:24:07.262Z,78.07
2018-06-27T01:26:35.673Z,78.17
2018-06-27T01:29:04.120Z,77.42
2018-06-27T01:31:32.608Z,77.76
2018-06-27T01:34:01.088Z,78.29
2018-06-27T01:36:29.549Z,79.03
2018-06-27T01:38:57.995Z,78.48
2018-06-27T01:41:26.387Z,78.16
2018-06-27T01:43:54.760Z,78.89
2018-06-27T01:46:23.182Z,79.56
2018-06-27T01:48:51.599Z,78.72
2018-06-27T01:51:20.052Z,77.91
2018-06-27T01:53:48.460Z,79.12
2018-06-27T01:56:16.940Z,79.03
2018-06-27T01:58:45.362Z,78.58
2018-06-27T02:01:13.810Z,79.52
2018-06-27T02:03:42.216Z,79.38
2018-06-27T02:06:10.615Z,79.59
2018-06-27T02:08:39.051Z,79.27
2018-06-27T02:11:07.489Z,80.00
2018-06-27T02:13:35.900Z,79.48
2018-06-27T02:16:04.476Z,79.14
2018-06-27T02:18:32.875Z,78.92
2018-06-27T02:21:01.302Z,80.06
2018-06-27T02:23:29.744Z,79.72
2018-06-27T02:25:58.145Z,80.02
2018-06-27T02:28:26.552Z,79.85
2018-06-27T02:30:54.995Z,79.24
2018-06-27T02:33:30.132Z,79.97
2018-06-27T02:35:59.376Z,79.54
2018-06-27T02:38:28.197Z,80.17
2018-06-27T02:40:56.771Z,80.24
2018-06-27T02:43:25.442Z,79.84
2018-06-27T02:45:54.976Z,80.01
2018-06-27T02:48:23.367Z,80.11
2018-06-27T02:50:51.859Z,80.60
2018-06-27T02:53:20.352Z,80.48
2018-06-27T02:55:48.801Z,79.73
2018-06-27T02:58:17.247Z,80.46
2018-06-27T03:00:45.713Z,80.98
2018-06-27T03:03:14.103Z,80.47
2018-06-27T03:05:42.562Z,80.80
2018-06-27T03:08:10.971Z,80.62
2018-06-27T03:10:39.421Z,80.62
2018-06-27T03:13:07.832Z,80.87
2018-06-27T03:15:36.257Z,80.69
2018-06-27T03:18:04.865Z,81.17
2018-06-27T03:20:33.316Z,81.47
2018-06-27T03:23:02.297Z,81.87
2018-06-27T03:25:30.804Z,82.26
2018-06-27T03:28:00.080Z,81.90
2018-06-27T03:30:28.542Z,82.60
2018-06-27T03:32:56.938Z,82.16
2018-06-27T03:35:25.351Z,82.60
2018-06-27T03:37:53.740Z,82.39
2018-06-27T03:40:22.151Z,82.76
2018-06-27T03:42:50.527Z,82.11
2018-06-27T03:45:18.903Z,82.58
2018-06-27T03:47:47.307Z,82.08
2018-06-27T03:50:15.724Z,81.66
2018-06-27T03:52:46.714Z,82.37
2018-06-27T03:55:15.904Z,81.87
2018-06-27T03:57:44.491Z,82.12
2018-06-27T04:00:12.984Z,82.37
2018-06-27T04:02:42.272Z,81.61
2018-06-27T04:05:10.761Z,82.27
2018-06-27T04:07:39.168Z,82.58
2018-06-27T04:10:09.213Z,82.18
2018-06-27T04:12:37.747Z,83.49
2018-06-27T04:15:06.914Z,82.40
2018-06-27T04:17:35.325Z,83.30
2018-06-27T04:20:03.888Z,82.38
2018-06-27T04:22:33.869Z,82.53
2018-06-27T04:25:02.421Z,83.16
2018-06-27T04:27:31.950Z,83.38
2018-06-27T04:30:01.710Z,83.01
2018-06-27T04:32:30.099Z,83.12
2018-06-27T04:34:59.681Z,83.13
2018-06-27T04:37:28.082Z,83.17
2018-06-27T04:39:56.840Z,83.29
2018-06-27T04:42:25.269Z,83.42
2018-06-27T04:44:53.680Z,83.51
2018-06-27T04:47:22.109Z,83.23
2018-06-27T04:49:50.710Z,82.35
2018-06-27T04:52:19.134Z,82.87
2018-06-27T04:54:47.627Z,82.23
2018-06-27T04:57:15.997Z,82.47
2018-06-27T04:59:44.424Z,82.73
2018-06-27T05:02:12.813Z,82.03
2018-06-27T05:04:41.240Z,82.07
2018-06-27T05:07:09.675Z,82.18
2018-06-27T05:09:38.084Z,82.10
2018-06-27T05:12:07.312Z,82.25
2018-06-27T05:14:35.722Z,82.57
2018-06-27T05:17:04.140Z,82.61
2018-06-27T05:19:32.612Z,81.92
2018-06-27T05:22:01.014Z,82.46
2018-06-27T05:24:29.447Z,82.13
2018-06-27T05:26:57.880Z,81.87
2018-06-27T05:29:26.299Z,82.15
2018-06-27T05:31:54.723Z,81.74
2018-06-27T05:34:23.148Z,81.87
2018-06-27T05:36:52.138Z,81.78
2018-06-27T05:39:21.231Z,82.34
2018-06-27T05:41:50.112Z,82.55
2018-06-27T05:44:18.617Z,82.58
2018-06-27T05:46:46.940Z,82.13
2018-06-27T05:49:15.410Z,82.11
2018-06-27T05:51:43.820Z,81.17
2018-06-27T05:54:12.241Z,81.14
2018-06-27T05:56:41.663Z,81.00
2018-06-27T05:59:10.207Z,80.86
2018-06-27T06:01:38.623Z,81.52
2018-06-27T06:04:07.081Z,81.03
2018-06-27T06:06:35.681Z,80.68
2018-06-27T06:09:06.359Z,80.64
2018-06-27T06:11:34.881Z,80.64
2018-06-27T06:14:03.326Z,80.72
2018-06-27T06:16:31.722Z,81.29
2018-06-27T06:19:00.122Z,80.78
2018-06-27T06:21:28.592Z,80.64
2018-06-27T06:23:57.099Z,80.58
2018-06-27T06:26:25.547Z,81.01
2018-06-27T06:28:53.975Z,81.46
2018-06-27T06:31:22.424Z,80.38
2018-06-27T06:33:51.513Z,81.01
2018-06-27T06:36:20.026Z,79.99
2018-06-27T06:38:48.481Z,80.53
2018-06-27T06:41:16.885Z,80.59
2018-06-27T06:43:45.301Z,79.26
2018-06-27T06:46:13.689Z,79.42
2018-06-27T06:48:42.115Z,79.82
2018-06-27T06:51:10.753Z,79.55
2018-06-27T06:53:39.213Z,79.53
2018-06-27T06:56:07.633Z,79.16
2018-06-27T06:58:36.036Z,80.07
2018-06-27T07:01:04.478Z,79.08
2018-06-27T07:03:32.847Z,79.94
2018-06-27T07:06:01.297Z,79.45
2018-06-27T07:08:29.734Z,78.72
2018-06-27T07:10:58.229Z,78.00
2018-06-27T07:13:26.623Z,78.99
2018-06-27T07:15:55.040Z,78.43
2018-06-27T07:18:23.431Z,78.72
2018-06-27T07:20:51.900Z,78.19
2018-06-27T07:23:20.346Z,78.97
2018-06-27T07:25:48.758Z,77.56
2018-06-27T07:28:17.198Z,77.18
2018-06-27T07:30:45.641Z,78.38
2018-06-27T07:33:14.074Z,77.63
2018-06-27T07:35:42.487Z,77.65
2018-06-27T07:38:11.060Z,77.26
2018-06-27T07:40:39.495Z,76.22
2018-06-27T07:43:07.921Z,76.47
2018-06-27T07:45:36.302Z,75.98
2018-06-27T07:48:04.763Z,75.72
2018-06-27T07:50:33.286Z,75.39
2018-06-27T07:53:01.710Z,74.94
2018-06-27T07:55:30.090Z,74.94
2018-06-27T07:57:58.469Z,73.55
2018-06-27T08:00:26.924Z,74.51
2018-06-27T08:02:55.308Z,74.99
2018-06-27T08:05:23.716Z,75.55
2018-06-27T08:07:52.815Z,74.86
2018-06-27T08:10:21.254Z,74.98
2018-06-27T08:12:51.518Z,74.31
2018-06-27T08:15:20.664Z,73.51
2018-06-27T08:17:49.180Z,73.57
2018-06-27T08:20:17.605Z,72.54
2018-06-27T08:22:45.991Z,73.35
2018-06-27T08:25:14.540Z,73.99
2018-06-27T08:27:43.047Z,73.31
2018-06-27T08:30:11.495Z,74.25
2018-06-27T08:32:40.005Z,72.86
2018-06-27T08:35:08.414Z,73.68
2018-06-27T08:37:36.794Z,72.46
2018-06-27T08:40:05.432Z,71.91
2018-06-27T08:42:33.823Z,72.41
2018-06-27T08:45:02.203Z,72.59
2018-06-27T08:47:30.621Z,71.15
2018-06-27T08:49:59.036Z,71.80
2018-06-27T08:52:27.424Z,72.43
2018-06-27T08:54:55.830Z,73.01
2018-06-27T08:57:24.253Z,71.45
2018-06-27T08:59:52.634Z,72.78
2018-06-27T09:02:21.036Z,71.74
2018-06-27T09:04:49.469Z,71.43
2018-06-27T09:07:18.160Z,70.07
2018-06-27T09:09:46.635Z,70.94
2018-06-27T09:12:15.126Z,71.22
2018-06-27T09:14:43.557Z,71.41
2018-06-27T09:17:11.967Z,71.61
2018-06-27T09:19:40.344Z,72.25
2018-06-27T09:22:08.754Z,71.30
2018-06-27T09:24:37.204Z,71.57
2018-06-27T09:27:05.747Z,70.85
2018-06-27T09:29:34.137Z,70.97
2018-06-27T09:32:02.590Z,69.65
2018-06-27T09:34:31.018Z,69.84
2018-06-27T09:36:59.377Z,70.02
2018-06-27T09:39:27.822Z,68.91
2018-06-27T09:41:56.224Z,66.95
2018-06-27T09:44:24.647Z,66.60
2018-06-27T09:46:53.037Z,66.68
2018-06-27T09:49:21.428Z,67.91
2018-06-27T09:51:49.801Z,68.24
2018-06-27T09:54:18.213Z,68.49
2018-06-27T09:56:46.662Z,67.74
2018-06-27T09:59:15.201Z,66.72
2018-06-27T10:01:43.600Z,67.23
2018-06-27T10:04:12.000Z,67.59
2018-06-27T10:06:40.417Z,67.83
2018-06-27T10:09:09.794Z,67.04
2018-06-27T10:11:38.196Z,66.81
2018-06-27T10:14:06.837Z,66.88
2018-06-27T10:16:35.427Z,65.90
2018-06-27T10:19:03.869Z,67.63
2018-06-27T10:21:32.321Z,67.70
2018-06-27T10:24:01.660Z,68.98
2018-06-27T10:26:30.132Z,68.15
2018-06-27T10:28:58.540Z,67.26
2018-06-27T10:31:26.927Z,67.36
2018-06-27T10:33:55.644Z,65.60
2018-06-27T10:36:24.065Z,65.37
2018-06-27T10:38:52.502Z,65.58
2018-06-27T10:41:21.246Z,66.20
2018-06-27T10:43:49.633Z,67.05
2018-06-27T10:46:18.175Z,65.91
2018-06-27T10:48:46.684Z,65.39
2018-06-27T10:51:15.121Z,65.45
2018-06-27T10:53:43.528Z,62.76
2018-06-27T10:56:11.998Z,62.37
2018-06-27T10:58:40.403Z,63.06
2018-06-27T11:01:08.802Z,58.96
2018-06-27T11:03:37.196Z,60.83
2018-06-27T11:06:06.001Z,60.46
2018-06-27T11:08:35.281Z,58.89
2018-06-27T11:11:03.791Z,59.43
2018-06-27T11:13:32.188Z,59.06
2018-06-27T11:16:00.596Z,56.10
2018-06-27T11:18:29.030Z,57.92
2018-06-27T11:20:57.417Z,55.33
2018-06-27T11:23:25.845Z,56.12
2018-06-27T11:25:54.260Z,56.68
2018-06-27T11:28:22.692Z,55.58
2018-06-27T11:30:51.051Z,54.15
2018-06-27T11:33:19.589Z,53.92
2018-06-27T11:35:48.161Z,53.74
2018-06-27T11:38:16.559Z,54.25
2018-06-27T11:40:44.975Z,54.05
2018-06-27T11:43:13.421Z,53.33
2018-06-27T11:45:41.804Z,56.06
2018-06-27T11:48:10.221Z,54.92
2018-06-27T11:50:38.649Z,54.81
2018-06-27T11:53:07.089Z,54.33
2018-06-27T11:55:35.561Z,52.03
2018-06-27T11:58:03.997Z,50.84
2018-06-27T12:00:32.603Z,50.28
2018-06-27T12:03:01.880Z,51.85
2018-06-27T12:05:30.277Z,52.99
2018-06-27T12:07:58.711Z,50.59
2018-06-27T12:10:27.076Z,48.83
2018-06-27T12:12:55.511Z,48.09
2018-06-27T12:15:23.974Z,46.90
2018-06-27T12:17:52.372Z,45.67
2018-06-27T12:20:20.881Z,48.25
2018-06-27T12:22:49.338Z,46.43
2018-06-27T12:25:18.246Z,48.90
2018-06-27T12:27:46.720Z,48.20
2018-06-27T12:30:19.859Z,47.07
2018-06-27T12:32:48.506Z,46.08
2018-06-27T12:35:17.033Z,45.16
2018-06-27T12:37:45.514Z,45.69
2018-06-27T12:40:13.987Z,47.10
2018-06-27T12:42:42.412Z,45.12
2018-06-27T12:45:11.736Z,43.34
2018-06-27T12:47:40.648Z,42.40
2018-06-27T12:50:09.777Z,44.30
2018-06-27T12:52:38.408Z,44.79
2018-06-27T12:55:08.968Z,45.15
2018-06-27T12:57:37.444Z,47.22
2018-06-27T13:00:07.870Z,47.46
2018-06-27T13:02:36.361Z,48.49
2018-06-27T13:05:05.845Z,48.44
2018-06-27T13:07:34.388Z,45.72
2018-06-27T13:10:02.898Z,44.31
2018-06-27T13:12:31.314Z,44.30
2018-06-27T13:14:59.757Z,46.56
2018-06-27T13:17:28.182Z,46.80
2018-06-27T13:19:56.588Z,44.57
2018-06-27T13:22:25.001Z,44.51
2018-06-27T13:24:53.470Z,44.49
2018-06-27T13:27:22.183Z,43.33
2018-06-27T13:29:50.614Z,42.18
2018-06-27T13:32:19.055Z,42.36
2018-06-27T13:34:47.450Z,41.37
2018-06-27T13:37:15.887Z,42.88
2018-06-27T13:39:44.311Z,44.79
2018-06-27T13:42:12.810Z,45.90
2018-06-27T13:44:41.223Z,45.54
2018-06-27T13:47:09.662Z,43.51
2018-06-27T13:49:38.076Z,43.57
2018-06-27T13:52:06.953Z,42.91
2018-06-27T13:54:35.428Z,43.32
2018-06-27T13:57:03.872Z,44.55
2018-06-27T13:59:32.315Z,44.76
2018-06-27T14:02:00.943Z,44.36
2018-06-27T14:04:29.442Z,43.83
2018-06-27T14:06:57.822Z,43.88
2018-06-27T14:09:26.231Z,42.64
2018-06-27T14:11:54.965Z,44.34
2018-06-27T14:14:23.627Z,44.34
2018-06-27T14:16:52.068Z,43.50
2018-06-27T14:19:20.486Z,42.87
2018-06-27T14:21:49.308Z,42.74
2018-06-27T14:24:17.737Z,43.09
2018-06-27T14:26:46.204Z,43.28
2018-06-27T14:29:14.578Z,45.09
2018-06-27T14:31:44.329Z,45.86
2018-06-27T14:34:13.004Z,43.38
2018-06-27T14:36:41.474Z,44.67
2018-06-27T14:39:10.512Z,43.23
2018-06-27T14:41:39.198Z,41.57
2018-06-27T14:44:07.744Z,42.44
2018-06-27T14:46:38.544Z,42.86
2018-06-27T14:49:06.924Z,41.26
2018-06-27T14:51:35.868Z,41.45
2018-06-27T14:54:04.873Z,42.28
2018-06-27T14:56:33.453Z,41.62
2018-06-27T14:59:01.875Z,40.03
2018-06-27T15:01:30.279Z,40.54
2018-06-27T15:03:58.695Z,40.21
2018-06-27T15:06:27.130Z,38.94
2018-06-27T15:08:55.588Z,40.90
2018-06-27T15:11:24.265Z,39.50
2018-06-27T15:13:52.652Z,39.75
2018-06-27T15:16:21.108Z,39.49
2018-06-27T15:18:49.513Z,38.04
2018-06-27T15:21:18.081Z,37.24
2018-06-27T15:23:46.638Z,39.01
2018-06-27T15:26:14.953Z,38.44
2018-06-27T15:28:43.412Z,37.83
2018-06-27T15:31:11.892Z,36.62
2018-06-27T15:33:41.211Z,34.01
2018-06-27T15:36:09.621Z,35.35
2018-06-27T15:38:38.025Z,35.16
2018-06-27T15:41:08.049Z,36.70
2018-06-27T15:43:36.567Z,36.05
2018-06-27T15:46:05.642Z,34.97
2018-06-27T15:48:34.199Z,37.39
2018-06-27T15:51:02.748Z,37.04
2018-06-27T15:53:31.282Z,37.03
2018-06-27T15:55:59.735Z,37.24
2018-06-27T15:58:29.960Z,37.45
2018-06-27T16:00:58.472Z,37.95
2018-06-27T16:03:27.084Z,38.31
2018-06-27T16:05:55.499Z,38.43
2018-06-27T16:08:23.970Z,39.96
2018-06-27T16:10:53.160Z,39.30
2018-06-27T16:13:21.606Z,38.93
2018-06-27T16:15:50.108Z,38.90
2018-06-27T16:18:18.517Z,39.13
2018-06-27T16:20:47.504Z,41.31
2018-06-27T16:23:15.967Z,40.47
2018-06-27T16:25:45.319Z,40.91
2018-06-27T16:28:13.759Z,38.54
2018-06-27T16:30:42.236Z,40.18
2018-06-27T16:33:10.709Z,39.46
2018-06-27T16:35:39.129Z,38.87
2018-06-27T16:38:07.585Z,39.20
2018-06-27T16:40:36.020Z,38.94
2018-06-27T16:43:05.227Z,38.28
2018-06-27T16:45:33.689Z,39.68
2018-06-27T16:48:02.168Z,38.56
2018-06-27T16:50:30.694Z,39.91
2018-06-27T16:52:59.047Z,39.62
2018-06-27T16:55:27.622Z,39.61
2018-06-27T16:57:56.140Z,39.21
2018-06-27T17:00:24.533Z,40.12
2018-06-27T17:02:52.952Z,39.69
2018-06-27T17:05:21.383Z,38.78
2018-06-27T17:07:49.782Z,38.96
2018-06-27T17:10:18.304Z,38.30
2018-06-27T17:12:46.847Z,39.29
2018-06-27T17:15:15.328Z,38.80
2018-06-27T17:17:43.766Z,39.07
2018-06-27T17:20:12.221Z,38.87
2018-06-27T17:22:40.705Z,39.44
2018-06-27T17:25:09.229Z,38.92
2018-06-27T17:27:37.644Z,38.05
2018-06-27T17:30:06.169Z,40.77
2018-06-27T17:32:35.423Z,40.20
2018-06-27T17:35:03.884Z,41.47
2018-06-27T17:37:32.373Z,37.60
2018-06-27T17:40:00.925Z,40.75
2018-06-27T17:42:29.570Z,39.92
2018-06-27T17:44:57.976Z,39.40
2018-06-27T17:47:26.427Z,40.90
2018-06-27T17:49:54.827Z,41.81
2018-06-27T17:52:23.263Z,41.30
2018-06-27T17:54:51.826Z,40.75
2018-06-27T17:57:20.316Z,40.40
2018-06-27T17:59:48.810Z,41.11
2018-06-27T18:02:17.300Z,41.20
2018-06-27T18:04:45.760Z,41.24
2018-06-27T18:07:14.204Z,42.95
2018-06-27T18:09:42.661Z,41.83
2018-06-27T18:12:11.060Z,41.10
2018-06-27T18:14:39.511Z,41.68
2018-06-27T18:17:08.029Z,42.23
2018-06-27T18:19:36.449Z,41.88
2018-06-27T18:22:05.015Z,41.73
2018-06-27T18:24:33.673Z,41.01
2018-06-27T18:27:02.148Z,41.79
2018-06-27T18:29:30.688Z,41.47
2018-06-27T18:31:59.179Z,41.65
2018-06-27T18:34:27.701Z,41.27
2018-06-27T18:36:56.152Z,42.81
2018-06-27T18:39:24.597Z,43.09
2018-06-27T18:41:52.981Z,41.79
2018-06-27T18:44:21.372Z,42.36
2018-06-27T18:46:49.788Z,44.82
2018-06-27T18:49:18.245Z,43.74
2018-06-27T18:51:46.661Z,44.42
2018-06-27T18:54:15.102Z,48.22
2018-06-27T18:56:43.525Z,49.31
2018-06-27T18:59:11.988Z,53.55
2018-06-27T19:01:40.415Z,54.98
2018-06-27T19:04:08.897Z,52.37
2018-06-27T19:06:37.343Z,52.87
2018-06-27T19:09:08.870Z,52.50
2018-06-27T19:11:37.289Z,52.35
2018-06-27T19:14:05.817Z,52.54
2018-06-27T19:16:34.284Z,52.86
2018-06-27T19:19:02.865Z,50.74
2018-06-27T19:21:31.292Z,54.27
2018-06-27T19:23:59.689Z,52.53
2018-06-27T19:26:28.170Z,51.91
2018-06-27T19:28:56.553Z,50.79
2018-06-27T19:31:24.972Z,51.16
2018-06-27T19:33:53.595Z,51.27
2018-06-27T19:36:22.068Z,50.06
2018-06-27T19:38:50.550Z,51.19
2018-06-27T19:41:19.083Z,52.23
2018-06-27T19:43:47.393Z,51.38
2018-06-27T19:46:15.815Z,51.21
2018-06-27T19:48:44.521Z,51.45
2018-06-27T19:51:12.962Z,51.81
2018-06-27T19:53:41.417Z,52.51
2018-06-27T19:56:09.845Z,54.00
2018-06-27T19:58:38.281Z,53.09
2018-06-27T20:01:06.963Z,52.99
2018-06-27T20:03:35.521Z,52.03
2018-06-27T20:06:04.032Z,53.18
2018-06-27T20:08:32.589Z,53.86
2018-06-27T20:11:00.992Z,53.30
2018-06-27T20:13:29.454Z,53.08
2018-06-27T20:15:57.972Z,51.45
2018-06-27T20:18:26.395Z,52.59
2018-06-27T20:20:54.919Z,52.74
2018-06-27T20:23:23.479Z,52.72
2018-06-27T20:25:52.019Z,51.63
2018-06-27T20:28:20.429Z,53.78
2018-06-27T20:30:48.850Z,53.59
2018-06-27T20:33:17.349Z,53.30
2018-06-27T20:35:45.769Z,53.10
2018-06-27T20:38:14.142Z,54.14
2018-06-27T20:40:42.567Z,53.67
2018-06-27T20:43:11.213Z,53.45
2018-06-27T20:45:39.693Z,53.46
2018-06-27T20:48:08.164Z,53.89
2018-06-27T20:50:36.616Z,52.87
2018-06-27T20:53:05.440Z,54.19
2018-06-27T20:55:34.056Z,53.57
2018-06-27T20:58:02.489Z,53.60
2018-06-27T21:00:30.945Z,52.94
2018-06-27T21:02:59.377Z,53.94
2018-06-27T21:05:27.798Z,54.30
2018-06-27T21:07:56.285Z,55.08
2018-06-27T21:10:24.717Z,54.44
2018-06-27T21:12:53.896Z,55.24
2018-06-27T21:15:22.361Z,53.94
2018-06-27T21:17:50.773Z,55.32
2018-06-27T21:20:19.264Z,54.41
2018-06-27T21:22:47.627Z,53.40
2018-06-27T21:25:16.045Z,52.96
2018-06-27T21:27:44.512Z,55.04
2018-06-27T21:30:12.931Z,53.61
2018-06-27T21:32:41.373Z,55.17
2018-06-27T21:35:09.783Z,55.45
2018-06-27T21:37:38.207Z,53.73
2018-06-27T21:40:06.697Z,55.48
2018-06-27T21:42:35.374Z,54.99
2018-06-27T21:45:03.977Z,54.54
2018-06-27T21:47:32.427Z,55.07
2018-06-27T21:50:00.865Z,56.45
2018-06-27T21:52:29.270Z,55.69
2018-06-27T21:54:57.709Z,55.37
2018-06-27T21:57:26.081Z,54.97
2018-06-27T21:59:54.512Z,55.60
2018-06-27T22:02:23.000Z,56.05
2018-06-27T22:04:51.502Z,56.31
2018-06-27T22:07:19.933Z,55.57
2018-06-27T22:09:48.404Z,56.58
2018-06-27T22:12:16.839Z,55.65
2018-06-27T22:14:45.294Z,55.49
2018-06-27T22:17:13.834Z,55.96
2018-06-27T22:19:42.228Z,55.85
2018-06-27T22:22:10.757Z,56.16
2018-06-27T22:24:39.266Z,56.65
2018-06-27T22:27:07.922Z,57.12
2018-06-27T22:29:37.246Z,56.71
2018-06-27T22:32:05.844Z,56.18
2018-06-27T22:34:34.290Z,56.94
2018-06-27T22:37:02.726Z,56.93
2018-06-27T22:39:31.163Z,57.56
2018-06-27T22:41:59.594Z,57.15
2018-06-27T22:44:27.996Z,57.46
2018-06-27T22:46:56.448Z,56.68
2018-06-27T22:49:24.860Z,57.08
2018-06-27T22:51:53.289Z,56.88
2018-06-27T22:54:21.769Z,57.55
2018-06-27T22:56:50.152Z,56.72
2018-06-27T22:59:18.598Z,57.75
2018-06-27T23:01:47.009Z,57.18
2018-06-27T23:04:15.399Z,58.05
2018-06-27T23:06:43.756Z,58.08
2018-06-27T23:09:12.149Z,59.09
2018-06-27T23:11:40.588Z,58.11
2018-06-27T23:14:09.044Z,58.40
2018-06-27T23:16:37.458Z,58.99
2018-06-27T23:19:05.998Z,58.56
2018-06-27T23:21:34.412Z,58.39
2018-06-27T23:24:02.819Z,58.16
2018-06-27T23:26:31.209Z,59.29
2018-06-27T23:28:59.569Z,58.44
2018-06-27T23:31:28.050Z,58.68
2018-06-27T23:33:56.453Z,58.81
2018-06-27T23:36:24.899Z,58.05
2018-06-27T23:38:53.880Z,59.19
2018-06-27T23:41:22.313Z,57.67
2018-06-27T23:43:50.693Z,58.62
2018-06-27T23:46:19.148Z,58.52
2018-06-27T23:48:47.577Z,58.54
2018-06-27T23:51:16.073Z,58.72
2018-06-27T23:53:44.512Z,59.69
2018-06-27T23:56:12.953Z,60.87
2018-06-27T23:58:42.320Z,60.65
